createdAt,value
2023-03-10T00:01:35.916Z,98574.66
2023-03-10T00:04:08.358Z,98584.52
2023-03-10T00:06:41.743Z,98595.38
2023-03-10T00:09:14.339Z,98596.45
2023-03-10T00:11:47.225Z,98607.18
2023-03-10T00:14:20.418Z,98603.80
2023-03-10T00:16:53.693Z,98599.56
2023-03-10T00:19:26.842Z,98604.95
2023-03-10T00:21:59.312Z,98595.10
2023-03-10T00:24:32.124Z,98587.83
2023-03-10T00:27:04.446Z,98582.13
2023-03-10T00:29:37.494Z,98597.24
2023-03-10T00:32:10.280Z,98607.00
2023-03-10T00:34:42.679Z,98611.85
2023-03-10T00:37:15.405Z,98620.02
2023-03-10T00:39:52.944Z,98624.29
2023-03-10T00:42:25.994Z,98638.19
2023-03-10T00:44:58.661Z,98649.13
2023-03-10T00:47:31.360Z,98670.42
2023-03-10T00:50:04.976Z,98671.38
2023-03-10T00:52:37.781Z,98685.64
2023-03-10T00:55:11.482Z,98694.26
2023-03-10T00:57:43.878Z,98708.17
2023-03-10T01:00:18.342Z,98710.48
2023-03-10T01:02:51.713Z,98717.56
2023-03-10T01:05:25.792Z,98716.23
2023-03-10T01:07:58.209Z,98718.59
2023-03-10T01:10:31.006Z,98720.52
2023-03-10T01:13:04.655Z,98731.72
2023-03-10T01:15:37.379Z,98745.38
2023-03-10T01:18:09.731Z,98752.31
2023-03-10T01:20:43.999Z,98756.09
2023-03-10T01:23:41.251Z,98768.14
2023-03-10T01:26:15.181Z,98772.05
2023-03-10T01:28:50.598Z,98781.06
2023-03-10T01:31:25.071Z,98780.95
2023-03-10T01:33:58.995Z,98780.83
2023-03-10T01:36:32.291Z,98786.53
2023-03-10T01:39:05.626Z,98781.42
2023-03-10T01:41:41.981Z,98781.42
2023-03-10T01:44:18.258Z,98789.58
2023-03-10T01:46:53.176Z,98794.55
2023-03-10T01:49:40.852Z,98793.84
2023-03-10T01:52:18.303Z,98798.94
2023-03-10T01:55:13.130Z,98810.98
2023-03-10T01:57:49.138Z,98810.63
2023-03-10T02:00:26.017Z,98817.80
2023-03-10T02:03:30.985Z,98833.11
2023-03-10T02:06:12.887Z,98827.28
2023-03-10T02:08:52.465Z,98839.57
2023-03-10T02:11:25.653Z,98848.47
2023-03-10T02:13:58.164Z,98870.47
2023-03-10T02:16:30.770Z,98878.03
2023-03-10T02:19:04.079Z,98880.23
2023-03-10T02:21:48.185Z,98890.55
2023-03-10T02:24:53.257Z,98896.87
2023-03-10T02:27:30.671Z,98904.27
2023-03-10T02:30:09.703Z,98913.05
2023-03-10T02:32:46.823Z,98920.33
2023-03-10T02:35:19.476Z,98925.67
2023-03-10T02:38:02.864Z,98928.13
2023-03-10T02:40:40.553Z,98927.42
2023-03-10T02:43:34.523Z,98931.66
2023-03-10T02:46:20.820Z,98934.45
2023-03-10T02:48:53.830Z,98933.59
2023-03-10T02:51:53.244Z,98942.23
2023-03-10T02:54:26.253Z,98939.91
2023-03-10T02:56:58.739Z,98935.78
2023-03-10T02:59:31.552Z,98934.33
2023-03-10T03:02:04.859Z,98940.38
2023-03-10T03:04:37.428Z,98950.09
2023-03-10T03:07:10.363Z,98948.03
2023-03-10T03:09:43.974Z,98958.23
2023-03-10T03:12:16.674Z,98960.02
2023-03-10T03:14:49.992Z,98966.83
2023-03-10T03:17:23.027Z,98970.95
2023-03-10T03:19:55.437Z,98979.59
2023-03-10T03:22:29.507Z,98981.30
2023-03-10T03:25:02.223Z,98992.02
2023-03-10T03:27:35.325Z,98994.97
2023-03-10T03:30:14.330Z,99001.02
2023-03-10T03:32:47.366Z,99004.39
2023-03-10T03:35:32.256Z,99011.08
2023-03-10T03:38:06.246Z,99018.53
2023-03-10T03:40:39.980Z,99017.77
2023-03-10T03:43:13.830Z,99018.39
2023-03-10T03:45:47.401Z,99025.80
2023-03-10T03:48:22.333Z,99022.29
2023-03-10T03:50:55.945Z,99025.08
2023-03-10T03:53:30.139Z,99031.98
2023-03-10T03:56:02.751Z,99030.41
2023-03-10T03:58:38.273Z,99030.23
2023-03-10T04:01:11.131Z,99030.63
2023-03-10T04:03:45.489Z,99039.34
2023-03-10T04:06:23.466Z,99050.00
2023-03-10T04:08:56.770Z,99052.64
2023-03-10T04:11:40.389Z,99053.98
2023-03-10T04:14:16.810Z,99054.59
2023-03-10T04:16:49.850Z,99050.70
2023-03-10T04:19:23.132Z,99055.69
2023-03-10T04:21:57.886Z,99059.11
2023-03-10T04:24:30.604Z,99071.16
2023-03-10T04:27:04.274Z,99065.41
2023-03-10T04:29:40.926Z,99073.83
2023-03-10T04:32:14.239Z,99072.99
2023-03-10T04:34:48.346Z,99073.10
2023-03-10T04:37:22.075Z,99079.06
2023-03-10T04:39:54.950Z,99092.91
2023-03-10T04:42:28.234Z,99097.89
2023-03-10T04:45:02.255Z,99096.59
2023-03-10T04:47:35.347Z,99097.33
2023-03-10T04:50:09.442Z,99097.97
2023-03-10T04:52:43.237Z,99100.53
2023-03-10T04:55:16.051Z,99096.63
2023-03-10T04:57:48.696Z,99098.33
2023-03-10T05:00:22.033Z,99097.39
2023-03-10T05:02:55.400Z,99100.79
2023-03-10T05:05:28.111Z,99099.84
2023-03-10T05:08:00.733Z,99107.01
2023-03-10T05:10:34.081Z,99109.21
2023-03-10T05:13:06.399Z,99105.42
2023-03-10T05:15:40.816Z,99101.87
2023-03-10T05:18:15.472Z,99108.81
2023-03-10T05:20:48.122Z,99109.80
2023-03-10T05:23:20.692Z,99113.59
2023-03-10T05:25:53.306Z,99111.42
2023-03-10T05:28:26.841Z,99119.01
2023-03-10T05:31:00.941Z,99121.36
2023-03-10T05:33:34.554Z,99119.80
2023-03-10T05:36:08.939Z,99135.71
2023-03-10T05:38:42.314Z,99135.20
2023-03-10T05:41:16.489Z,99135.60
2023-03-10T05:43:50.968Z,99139.98
2023-03-10T05:46:24.998Z,99143.23
2023-03-10T05:49:00.848Z,99143.38
2023-03-10T05:51:33.690Z,99146.78
2023-03-10T05:54:07.490Z,99154.59
2023-03-10T05:56:40.162Z,99163.48
2023-03-10T05:59:14.053Z,99166.67
2023-03-10T06:01:46.566Z,99163.55
2023-03-10T06:04:19.571Z,99168.25
2023-03-10T06:06:53.245Z,99166.67
2023-03-10T06:09:25.828Z,99176.00
2023-03-10T06:11:59.682Z,99183.11
2023-03-10T06:14:33.341Z,99190.80
2023-03-10T06:17:06.085Z,99192.30
2023-03-10T06:19:39.075Z,99189.11
2023-03-10T06:22:11.934Z,99187.14
2023-03-10T06:24:45.595Z,99198.20
2023-03-10T06:27:18.472Z,99200.39
2023-03-10T06:29:50.887Z,99200.39
2023-03-10T06:32:23.545Z,99202.73
2023-03-10T06:34:55.883Z,99203.28
2023-03-10T06:37:28.942Z,99202.02
2023-03-10T06:40:01.482Z,99204.73
2023-03-10T06:42:45.408Z,99201.97
2023-03-10T06:45:18.750Z,99192.30
2023-03-10T06:47:51.266Z,99189.81
2023-03-10T06:50:24.898Z,99198.23
2023-03-10T06:52:58.139Z,99200.84
2023-03-10T06:55:30.721Z,99197.19
2023-03-10T06:58:03.399Z,99187.42
2023-03-10T07:00:36.909Z,99183.77
2023-03-10T07:03:13.026Z,99184.36
2023-03-10T07:05:45.414Z,99180.69
2023-03-10T07:08:17.801Z,99181.05
2023-03-10T07:10:51.943Z,99181.16
2023-03-10T07:13:24.830Z,99175.09
2023-03-10T07:15:58.168Z,99180.66
2023-03-10T07:18:31.113Z,99185.66
2023-03-10T07:21:03.530Z,99182.34
2023-03-10T07:23:37.058Z,99193.35
2023-03-10T07:26:09.490Z,99197.26
2023-03-10T07:28:43.449Z,99212.38
2023-03-10T07:31:16.115Z,99226.55
2023-03-10T07:33:49.908Z,99220.30
2023-03-10T07:36:24.558Z,99231.15
2023-03-10T07:39:10.177Z,99251.98
2023-03-10T07:41:42.773Z,99256.88
2023-03-10T07:44:15.546Z,99248.08
2023-03-10T07:46:48.375Z,99250.03
2023-03-10T07:49:22.375Z,99268.28
2023-03-10T07:51:55.842Z,99257.92
2023-03-10T07:54:28.265Z,99252.32
2023-03-10T07:57:00.866Z,99255.76
2023-03-10T07:59:33.362Z,99260.99
2023-03-10T08:02:06.512Z,99257.92
2023-03-10T08:04:39.220Z,99262.56
2023-03-10T08:07:12.141Z,99264.15
2023-03-10T08:09:46.340Z,99273.78
2023-03-10T08:12:19.760Z,99276.81
2023-03-10T08:14:52.904Z,99284.13
2023-03-10T08:17:27.775Z,99272.42
2023-03-10T08:20:00.987Z,99260.89
2023-03-10T08:22:33.653Z,99272.62
2023-03-10T08:25:06.928Z,99277.06
2023-03-10T08:27:41.808Z,99271.20
2023-03-10T08:30:15.417Z,99265.95
2023-03-10T08:32:48.517Z,99284.89
2023-03-10T08:35:21.216Z,99265.00
2023-03-10T08:37:55.454Z,99259.63
2023-03-10T08:40:28.403Z,99249.73
2023-03-10T08:43:01.845Z,99230.11
2023-03-10T08:45:34.386Z,99234.27
2023-03-10T08:48:07.013Z,99230.38
2023-03-10T08:50:40.246Z,99226.23
2023-03-10T08:53:12.912Z,99224.61
2023-03-10T08:55:45.354Z,99226.31
2023-03-10T08:58:18.527Z,99239.97
2023-03-10T09:00:50.816Z,99239.62
2023-03-10T09:03:23.819Z,99241.56
2023-03-10T09:05:56.228Z,99247.80
2023-03-10T09:08:31.170Z,99245.84
2023-03-10T09:11:04.273Z,99245.33
2023-03-10T09:13:37.029Z,99246.52
2023-03-10T09:16:11.417Z,99241.61
2023-03-10T09:18:44.483Z,99234.01
2023-03-10T09:21:18.410Z,99227.73
2023-03-10T09:23:53.060Z,99219.77
2023-03-10T09:26:25.737Z,99223.86
2023-03-10T09:28:58.718Z,99240.36
2023-03-10T09:31:34.432Z,99242.12
2023-03-10T09:34:08.469Z,99254.23
2023-03-10T09:36:41.498Z,99253.72
2023-03-10T09:39:13.902Z,99255.80
2023-03-10T09:42:14.961Z,99256.90
2023-03-10T09:45:17.123Z,99252.70
2023-03-10T09:48:25.952Z,99263.75
2023-03-10T09:50:57.200Z,99269.67
2023-03-10T09:54:00.300Z,99259.06
2023-03-10T09:56:34.988Z,99239.61
2023-03-10T09:59:12.078Z,99225.95
2023-03-10T10:02:06.531Z,99225.70
2023-03-10T10:04:40.778Z,99205.47
2023-03-10T10:07:21.072Z,99188.01
2023-03-10T10:10:19.343Z,99179.36
2023-03-10T10:12:52.666Z,99201.98
2023-03-10T10:15:27.625Z,99215.88
2023-03-10T10:18:34.076Z,99218.77
2023-03-10T10:21:11.603Z,99218.09
2023-03-10T10:23:51.805Z,99229.69
2023-03-10T10:26:27.947Z,99221.59
2023-03-10T10:29:14.307Z,99226.81
2023-03-10T10:32:06.870Z,99234.76
2023-03-10T10:34:42.932Z,99234.38
2023-03-10T10:37:38.803Z,99223.22
2023-03-10T10:40:25.309Z,99211.58
2023-03-10T10:43:00.473Z,99205.11
2023-03-10T10:45:40.403Z,99197.94
2023-03-10T10:48:40.543Z,99201.50
2023-03-10T10:51:29.319Z,99198.84
2023-03-10T10:54:06.470Z,99198.66
2023-03-10T10:56:38.821Z,99204.28
2023-03-10T10:59:23.761Z,99193.27
2023-03-10T11:02:02.217Z,99192.18
2023-03-10T11:04:46.609Z,99197.56
2023-03-10T11:07:23.480Z,99204.73
2023-03-10T11:09:58.618Z,99206.21
2023-03-10T11:12:35.459Z,99209.73
2023-03-10T11:15:28.334Z,99217.52
2023-03-10T11:18:06.230Z,99214.70
2023-03-10T11:20:56.480Z,99195.95
2023-03-10T11:23:51.806Z,99190.05
2023-03-10T11:26:29.281Z,99189.88
2023-03-10T11:29:25.652Z,99182.67
2023-03-10T11:32:19.494Z,99175.72
2023-03-10T11:34:58.374Z,99174.38
2023-03-10T11:37:47.673Z,99174.38
2023-03-10T11:40:29.050Z,99179.84
2023-03-10T11:43:35.787Z,99186.09
2023-03-10T11:46:26.064Z,99188.53
2023-03-10T11:49:07.904Z,99181.58
2023-03-10T11:51:51.792Z,99179.19
2023-03-10T11:54:49.105Z,99178.23
2023-03-10T11:57:23.265Z,99182.75
2023-03-10T12:00:00.426Z,99163.91
2023-03-10T12:03:04.475Z,99162.57
2023-03-10T12:05:53.321Z,99166.25
2023-03-10T12:08:26.850Z,99154.14
2023-03-10T12:11:03.329Z,99152.54
2023-03-10T12:13:44.030Z,99138.22
2023-03-10T12:16:24.691Z,99136.04
2023-03-10T12:18:57.421Z,99131.78
2023-03-10T12:21:31.889Z,99133.61
2023-03-10T12:24:05.478Z,99137.73
2023-03-10T12:26:45.758Z,99144.07
2023-03-10T12:29:29.671Z,99150.14
2023-03-10T12:32:02.322Z,99154.62
2023-03-10T12:34:35.422Z,99144.89
2023-03-10T12:37:12.300Z,99144.42
2023-03-10T12:39:45.169Z,99137.94
2023-03-10T12:42:36.000Z,99127.22
2023-03-10T12:45:29.341Z,99121.77
2023-03-10T12:48:22.674Z,99121.84
2023-03-10T12:51:01.357Z,99122.39
2023-03-10T12:53:38.991Z,99128.86
2023-03-10T12:56:19.219Z,99130.66
2023-03-10T12:59:02.111Z,99126.83
2023-03-10T13:01:55.096Z,99123.66
2023-03-10T13:04:22.298Z,99130.67
2023-03-10T13:06:59.695Z,99115.24
2023-03-10T13:09:39.254Z,99112.17
2023-03-10T13:12:31.237Z,99106.92
2023-03-10T13:15:06.437Z,99103.59
2023-03-10T13:17:38.847Z,99091.84
2023-03-10T13:20:19.469Z,99086.25
2023-03-10T13:23:18.399Z,99083.03
2023-03-10T13:25:58.018Z,99082.02
2023-03-10T13:28:34.687Z,99079.67
2023-03-10T13:31:35.859Z,99082.36
2023-03-10T13:34:21.419Z,99089.98
2023-03-10T13:36:54.799Z,99076.23
2023-03-10T13:39:28.263Z,99072.94
2023-03-10T13:42:02.263Z,99063.52
2023-03-10T13:44:42.471Z,99066.48
2023-03-10T13:47:24.982Z,99064.78
2023-03-10T13:50:00.957Z,99056.44
2023-03-10T13:52:34.456Z,99049.18
2023-03-10T13:55:16.185Z,99043.31
2023-03-10T13:57:49.797Z,99046.00
2023-03-10T14:00:25.210Z,99045.28
2023-03-10T14:02:57.757Z,99038.33
2023-03-10T14:06:00.412Z,99032.25
2023-03-10T14:08:34.050Z,99029.18
2023-03-10T14:11:41.878Z,99028.70
2023-03-10T14:14:15.493Z,99024.31
2023-03-10T14:16:57.051Z,99028.34
2023-03-10T14:19:48.578Z,99036.05
2023-03-10T14:22:36.310Z,99037.39
2023-03-10T14:25:13.014Z,99031.07
2023-03-10T14:27:49.684Z,99031.27
2023-03-10T14:30:29.367Z,99037.03
2023-03-10T14:33:03.029Z,99021.78
2023-03-10T14:35:35.440Z,99033.22
2023-03-10T14:38:08.434Z,99026.80
2023-03-10T14:40:54.587Z,99026.28
2023-03-10T14:43:28.345Z,99034.03
2023-03-10T14:46:06.280Z,99026.71
2023-03-10T14:48:40.934Z,99035.61
2023-03-10T14:51:29.029Z,99035.45
2023-03-10T14:53:52.608Z,99025.36
2023-03-10T14:56:25.695Z,99030.56
2023-03-10T14:58:59.940Z,99021.46
2023-03-10T15:01:32.226Z,99018.56
2023-03-10T15:04:05.305Z,99019.13
2023-03-10T15:06:37.778Z,99009.55
2023-03-10T15:09:10.956Z,99008.94
2023-03-10T15:11:44.347Z,99003.67
2023-03-10T15:14:20.543Z,99005.23
2023-03-10T15:16:53.011Z,98996.02
2023-03-10T15:19:28.227Z,99006.29
2023-03-10T15:22:00.738Z,98994.45
2023-03-10T15:24:33.725Z,98996.77
2023-03-10T15:27:06.183Z,98991.58
2023-03-10T15:29:39.371Z,99004.05
2023-03-10T15:32:12.830Z,99001.31
2023-03-10T15:34:45.424Z,99002.23
2023-03-10T15:37:17.928Z,99002.43
2023-03-10T15:39:50.580Z,98998.94
2023-03-10T15:42:25.353Z,98997.86
2023-03-10T15:44:58.072Z,99004.52
2023-03-10T15:47:31.279Z,99006.40
2023-03-10T15:50:03.824Z,99007.53
2023-03-10T15:52:36.445Z,98995.69
2023-03-10T15:55:09.670Z,99002.17
2023-03-10T15:57:43.193Z,99011.23
2023-03-10T16:00:20.002Z,99001.02
2023-03-10T16:02:53.069Z,98986.74
2023-03-10T16:05:26.059Z,98999.12
2023-03-10T16:08:00.149Z,98996.73
2023-03-10T16:10:34.607Z,98984.23
2023-03-10T16:13:07.240Z,98989.63
2023-03-10T16:15:40.316Z,98999.04
2023-03-10T16:18:12.959Z,98983.89
2023-03-10T16:20:45.760Z,98980.20
2023-03-10T16:23:19.178Z,98977.16
2023-03-10T16:26:13.046Z,98989.89
2023-03-10T16:28:55.733Z,98981.09
2023-03-10T16:31:28.798Z,98975.45
2023-03-10T16:34:03.997Z,98965.48
2023-03-10T16:36:37.954Z,98975.62
2023-03-10T16:39:12.191Z,98976.23
2023-03-10T16:41:45.572Z,98972.94
2023-03-10T16:44:18.206Z,98974.77
2023-03-10T16:46:50.703Z,98972.20
2023-03-10T16:49:24.445Z,98976.23
2023-03-10T16:51:56.710Z,98974.89
2023-03-10T16:54:29.114Z,98968.78
2023-03-10T16:57:03.808Z,98977.10
2023-03-10T16:59:37.054Z,98967.69
2023-03-10T17:02:15.870Z,98969.03
2023-03-10T17:04:49.385Z,98974.28
2023-03-10T17:07:21.727Z,98976.11
2023-03-10T17:09:55.201Z,98975.02
2023-03-10T17:12:27.758Z,98978.58
2023-03-10T17:15:00.791Z,98967.44
2023-03-10T17:17:34.171Z,98964.61
2023-03-10T17:20:08.788Z,98961.80
2023-03-10T17:22:41.359Z,98954.38
2023-03-10T17:25:15.104Z,98964.05
2023-03-10T17:27:48.276Z,98956.11
2023-03-10T17:30:20.821Z,98970.05
2023-03-10T17:32:53.981Z,98945.84
2023-03-10T17:35:26.485Z,98960.98
2023-03-10T17:37:59.852Z,98959.28
2023-03-10T17:40:33.977Z,98966.73
2023-03-10T17:43:17.648Z,98957.94
2023-03-10T17:45:41.523Z,98954.98
2023-03-10T17:48:14.663Z,98955.47
2023-03-10T17:50:51.542Z,98960.02
2023-03-10T17:53:30.134Z,98951.56
2023-03-10T17:56:09.380Z,98951.70
2023-03-10T17:58:43.307Z,98951.35
2023-03-10T18:01:22.324Z,98945.62
2023-03-10T18:03:56.302Z,98945.75
2023-03-10T18:06:31.696Z,98944.28
2023-03-10T18:09:07.756Z,98938.03
2023-03-10T18:11:40.280Z,98938.03
2023-03-10T18:14:12.955Z,98937.42
2023-03-10T18:16:46.039Z,98924.94
2023-03-10T18:19:20.835Z,98934.86
2023-03-10T18:21:53.761Z,98931.96
2023-03-10T18:24:26.770Z,98917.44
2023-03-10T18:27:01.174Z,98931.58
2023-03-10T18:29:33.804Z,98917.78
2023-03-10T18:32:08.185Z,98921.95
2023-03-10T18:34:41.219Z,98916.44
2023-03-10T18:37:19.859Z,98916.78
2023-03-10T18:39:53.092Z,98919.86
2023-03-10T18:42:28.301Z,98910.14
2023-03-10T18:45:01.764Z,98910.79
2023-03-10T18:47:36.646Z,98897.61
2023-03-10T18:50:11.731Z,98906.81
2023-03-10T18:52:44.543Z,98894.19
2023-03-10T18:55:22.709Z,98898.50
2023-03-10T18:57:58.205Z,98901.45
2023-03-10T19:00:31.614Z,98897.84
2023-03-10T19:03:04.747Z,98890.88
2023-03-10T19:05:39.164Z,98887.50
2023-03-10T19:08:12.346Z,98882.73
2023-03-10T19:10:45.517Z,98877.62
2023-03-10T19:13:18.269Z,98873.72
2023-03-10T19:15:50.804Z,98871.81
2023-03-10T19:18:24.847Z,98861.68
2023-03-10T19:21:02.140Z,98874.66
2023-03-10T19:23:35.157Z,98862.47
2023-03-10T19:26:09.224Z,98864.08
2023-03-10T19:28:42.141Z,98861.39
2023-03-10T19:31:15.899Z,98859.92
2023-03-10T19:33:48.931Z,98852.13
2023-03-10T19:36:21.544Z,98854.33
2023-03-10T19:38:54.837Z,98838.83
2023-03-10T19:41:28.261Z,98846.17
2023-03-10T19:44:04.192Z,98844.48
2023-03-10T19:46:37.836Z,98838.56
2023-03-10T19:49:10.427Z,98831.65
2023-03-10T19:51:43.245Z,98839.49
2023-03-10T19:54:16.704Z,98820.89
2023-03-10T19:56:50.881Z,98824.45
2023-03-10T19:59:23.549Z,98828.88
2023-03-10T20:01:56.179Z,98829.52
2023-03-10T20:04:28.988Z,98815.36
2023-03-10T20:07:01.744Z,98813.28
2023-03-10T20:09:35.915Z,98810.52
2023-03-10T20:12:08.830Z,98820.70
2023-03-10T20:14:41.453Z,98808.50
2023-03-10T20:17:14.230Z,98814.52
2023-03-10T20:19:46.788Z,98811.45
2023-03-10T20:22:19.753Z,98812.58
2023-03-10T20:24:52.515Z,98812.48
2023-03-10T20:27:25.547Z,98803.95
2023-03-10T20:29:59.392Z,98804.43
2023-03-10T20:32:32.139Z,98813.10
2023-03-10T20:35:05.193Z,98794.30
2023-03-10T20:37:38.790Z,98801.53
2023-03-10T20:40:13.539Z,98797.98
2023-03-10T20:42:46.362Z,98793.59
2023-03-10T20:45:19.312Z,98787.23
2023-03-10T20:47:55.603Z,98798.24
2023-03-10T20:50:28.255Z,98790.09
2023-03-10T20:53:02.199Z,98785.86
2023-03-10T20:55:35.748Z,98781.31
2023-03-10T20:58:08.444Z,98787.67
2023-03-10T21:00:41.103Z,98786.69
2023-03-10T21:03:13.658Z,98782.17
2023-03-10T21:05:46.492Z,98774.73
2023-03-10T21:08:19.521Z,98775.24
2023-03-10T21:10:52.644Z,98770.97
2023-03-10T21:13:25.804Z,98769.75
2023-03-10T21:15:58.336Z,98768.06
2023-03-10T21:18:31.047Z,98767.45
2023-03-10T21:21:10.110Z,98766.80
2023-03-10T21:23:46.218Z,98763.29
2023-03-10T21:26:20.680Z,98755.36
2023-03-10T21:28:53.382Z,98756.33
2023-03-10T21:31:25.814Z,98746.58
2023-03-10T21:33:58.340Z,98744.75
2023-03-10T21:36:30.719Z,98748.56
2023-03-10T21:39:03.367Z,98744.54
2023-03-10T21:41:35.996Z,98750.13
2023-03-10T21:44:08.838Z,98749.99
2023-03-10T21:46:41.814Z,98743.63
2023-03-10T21:49:15.833Z,98741.94
2023-03-10T21:51:48.646Z,98748.39
2023-03-10T21:54:21.044Z,98740.06
2023-03-10T21:56:54.750Z,98738.72
2023-03-10T21:59:27.373Z,98739.33
2023-03-10T22:02:00.798Z,98734.44
2023-03-10T22:04:33.418Z,98719.41
2023-03-10T22:07:06.363Z,98720.61
2023-03-10T22:09:41.270Z,98715.97
2023-03-10T22:12:13.436Z,98713.28
2023-03-10T22:14:47.616Z,98713.89
2023-03-10T22:17:20.761Z,98718.44
2023-03-10T22:19:55.036Z,98712.55
2023-03-10T22:22:27.749Z,98715.23
2023-03-10T22:25:01.877Z,98707.45
2023-03-10T22:27:34.592Z,98707.19
2023-03-10T22:30:08.685Z,98716.10
2023-03-10T22:32:42.051Z,98711.94
2023-03-10T22:35:14.828Z,98708.39
2023-03-10T22:37:48.420Z,98700.84
2023-03-10T22:40:24.159Z,98696.44
2023-03-10T22:42:57.874Z,98701.94
2023-03-10T22:45:33.061Z,98691.72
2023-03-10T22:48:07.135Z,98688.92
2023-03-10T22:50:43.639Z,98689.30
2023-03-10T22:53:21.079Z,98688.57
2023-03-10T22:55:53.903Z,98694.16
2023-03-10T22:58:26.246Z,98685.96
2023-03-10T23:00:59.118Z,98693.19
2023-03-10T23:03:31.753Z,98695.02
2023-03-10T23:06:08.241Z,98691.20
2023-03-10T23:08:43.957Z,98687.77
2023-03-10T23:11:16.862Z,98683.81
2023-03-10T23:13:50.481Z,98684.16
2023-03-10T23:16:23.882Z,98685.75
2023-03-10T23:18:56.958Z,98675.56
2023-03-10T23:21:29.646Z,98673.81
2023-03-10T23:24:02.300Z,98682.08
2023-03-10T23:26:36.380Z,98668.64
2023-03-10T23:29:10.020Z,98668.75
2023-03-10T23:31:43.221Z,98666.75
2023-03-10T23:34:17.498Z,98670.52
2023-03-10T23:36:50.073Z,98668.31
2023-03-10T23:39:22.491Z,98668.17
2023-03-10T23:41:54.964Z,98664.52
2023-03-10T23:44:27.681Z,98660.83
2023-03-10T23:47:00.061Z,98650.09
2023-03-10T23:49:33.456Z,98652.63
2023-03-10T23:52:06.061Z,98650.95
2023-03-10T23:54:38.838Z,98646.05
2023-03-10T23:57:11.911Z,98641.67
2023-03-10T23:59:44.381Z,98636.30
